Time;durP1;ratioP1;P1;durP2;ratioP2;P2;SDS_P1;SDS_P2;PMS_P1;PMS_P2;Temp;Humidity;BMP_temperature;BMP_pressure;BME280_temperature;BME280_humidity;BME280_pressure;Samples;Min_cycle;Max_cycle;Signal;HPM_P1;HPM_P2
2023/01/16 00:01:00;;;;;;;0.10;0.10;;;;;;;5.76;73.07;99620.94;5094574;28;20097;-80
2023/01/16 00:03:26;;;;;;;0.10;0.10;;;;;;;5.78;72.96;99618.28;5094726;28;20396;-80
2023/01/16 00:05:53;;;;;;;0.20;0.20;;;;;;;5.78;73.23;99605.13;5095009;28;20031;-80
2023/01/16 00:08:19;;;;;;;0.10;0.10;;;;;;;5.77;73.20;99601.66;5104408;28;20152;-79
2023/01/16 00:10:45;;;;;;;0.10;0.10;;;;;;;5.72;72.95;99593.00;5100081;28;20042;-78
2023/01/16 00:13:12;;;;;;;0.10;0.10;;;;;;;5.68;73.38;99588.69;5097981;28;20020;-79
2023/01/16 00:15:43;;;;;;;0.10;0.10;;;;;;;5.65;73.09;99584.38;5093989;28;20020;-79
2023/01/16 00:18:09;;;;;;;0.20;0.20;;;;;;;5.62;73.14;99594.06;5095201;28;20555;-79
2023/01/16 00:20:35;;;;;;;0.20;0.20;;;;;;;5.57;73.17;99588.91;5093932;28;20038;-78
2023/01/16 00:23:01;;;;;;;0.10;0.10;;;;;;;5.49;73.25;99577.69;5094814;28;20035;-78
2023/01/16 00:25:28;;;;;;;0.20;0.20;;;;;;;5.50;73.27;99577.66;5093120;28;20119;-79
2023/01/16 00:27:54;;;;;;;0.10;0.10;;;;;;;5.51;72.85;99574.13;5091230;28;20036;-78
2023/01/16 00:30:20;;;;;;;0.10;0.10;;;;;;;5.49;72.88;99572.44;5092611;28;20040;-79
2023/01/16 00:32:46;;;;;;;0.15;0.15;;;;;;;5.45;73.12;99579.50;5092309;28;20031;-78
2023/01/16 00:35:12;;;;;;;0.10;0.10;;;;;;;5.41;73.28;99569.97;5093255;28;20132;-78
2023/01/16 00:37:38;;;;;;;0.20;0.20;;;;;;;5.38;73.17;99562.13;5093191;28;20488;-78
2023/01/16 00:40:05;;;;;;;0.17;0.17;;;;;;;5.37;73.43;99555.16;5093000;28;20032;-78
2023/01/16 00:42:31;;;;;;;0.10;0.10;;;;;;;5.32;73.40;99542.13;5096290;28;20024;-78
2023/01/16 00:44:57;;;;;;;0.10;0.10;;;;;;;5.31;73.28;99544.78;5104376;28;20044;-77
2023/01/16 00:47:23;;;;;;;0.10;0.10;;;;;;;5.29;73.33;99536.91;5105720;28;20487;-78
2023/01/16 00:49:50;;;;;;;0.10;0.10;;;;;;;5.22;73.60;99535.31;5096990;28;20032;-79
2023/01/16 00:52:16;;;;;;;0.10;0.10;;;;;;;5.23;73.72;99538.78;5096097;28;20081;-79
2023/01/16 00:54:42;;;;;;;0.10;0.10;;;;;;;5.22;73.59;99530.06;5093055;28;20028;-79
2023/01/16 00:57:08;;;;;;;0.20;0.20;;;;;;;5.23;73.65;99523.03;5093514;28;20015;-80
2023/01/16 00:59:34;;;;;;;0.10;0.10;;;;;;;5.19;73.90;99517.81;5093420;28;20020;-79
2023/01/16 01:02:00;;;;;;;0.10;0.10;;;;;;;5.23;73.73;99509.91;5092009;28;20040;-79
2023/01/16 01:04:28;;;;;;;0.10;0.10;;;;;;;5.23;73.97;99497.63;5094806;28;20303;-79
2023/01/16 01:06:54;;;;;;;0.43;0.43;;;;;;;5.19;74.03;99499.44;5092537;28;20051;-79
2023/01/16 01:09:20;;;;;;;0.10;0.10;;;;;;;5.19;74.03;99493.34;5097094;28;20028;-77
2023/01/16 01:11:46;;;;;;;0.20;0.20;;;;;;;5.16;74.07;99483.78;5104378;28;20105;-78
2023/01/16 01:14:12;;;;;;;0.20;0.20;;;;;;;5.12;74.27;99475.97;5098372;28;20361;-79
2023/01/16 01:16:40;;;;;;;0.20;0.20;;;;;;;5.11;74.71;99469.00;5103910;28;20031;-77
2023/01/16 01:19:06;;;;;;;0.17;0.17;;;;;;;5.08;74.50;99469.91;5100706;28;20020;-79
2023/01/16 01:21:32;;;;;;;0.10;0.10;;;;;;;5.06;74.57;99469.09;5102019;28;20459;-79
2023/01/16 01:23:58;;;;;;;0.10;0.10;;;;;;;5.08;74.57;99459.41;5094576;28;20035;-79
2023/01/16 01:26:24;;;;;;;0.20;0.20;;;;;;;5.07;74.14;99447.22;5093475;28;20144;-79
2023/01/16 01:28:50;;;;;;;0.45;0.45;;;;;;;5.09;74.70;99434.91;5093422;28;20385;-79
2023/01/16 01:31:16;;;;;;;0.20;0.20;;;;;;;5.08;74.67;99438.41;5095747;28;20028;-79
2023/01/16 01:33:42;;;;;;;0.10;0.10;;;;;;;5.05;74.65;99433.25;5099165;28;20036;-80
2023/01/16 01:36:09;;;;;;;0.20;0.20;;;;;;;5.07;74.53;99425.31;5093690;28;20031;-79
2023/01/16 01:38:36;;;;;;;0.35;0.35;;;;;;;5.10;74.51;99426.13;5095778;28;20032;-78
2023/01/16 01:41:02;;;;;;;0.10;0.10;;;;;;;5.07;74.67;99420.94;5095451;28;20032;-79
2023/01/16 01:49:06;;;;;;;0.30;0.22;;;;;;;5.01;74.56;99406.19;5103068;27;1206440;-79
2023/01/16 01:51:38;;;;;;;0.25;0.25;;;;;;;5.03;74.65;99398.25;5131266;27;20035;-79
2023/01/16 01:54:17;;;;;;;0.20;0.20;;;;;;;5.07;74.62;99391.19;5122100;28;20028;-80
2023/01/16 01:56:48;;;;;;;0.10;0.10;;;;;;;5.06;74.73;99390.34;5110452;28;20020;-79
2023/01/16 01:59:20;;;;;;;0.20;0.20;;;;;;;5.06;74.56;99382.47;5107503;28;20062;-77
2023/01/16 02:01:47;;;;;;;0.20;0.20;;;;;;;5.08;74.46;99382.44;5108821;28;20032;-77
2023/01/16 02:04:16;;;;;;;0.10;0.10;;;;;;;5.08;74.73;99372.78;5113927;28;20179;-77
2023/01/16 02:06:49;;;;;;;0.17;0.17;;;;;;;5.08;74.63;99375.41;5115832;28;20132;-79
2023/01/16 02:09:16;;;;;;;0.20;0.20;;;;;;;5.05;74.83;99369.34;5112263;28;20054;-79
2023/01/16 02:11:53;;;;;;;0.10;0.10;;;;;;;5.08;74.93;99358.81;5107859;28;20059;-79
2023/01/16 02:14:20;;;;;;;0.20;0.20;;;;;;;5.00;74.78;99359.81;5108231;28;20053;-80
2023/01/16 02:23:18;;;;;;;0.10;0.10;;;;;;;5.05;74.24;99354.47;5098854;27;1175261;-79
2023/01/16 02:28:49;;;;;;;0.10;0.10;;;;;;;4.99;74.32;99346.75;5069685;28;20390;-79
2023/01/16 02:31:31;;;;;;;0.10;0.10;;;;;;;4.97;74.42;99340.66;5061219;28;20055;-78
2023/01/16 02:34:37;;;;;;;0.20;0.20;;;;;;;5.00;74.32;99332.72;5063960;28;20025;-79
2023/01/16 02:37:35;;;;;;;0.10;0.10;;;;;;;5.02;74.09;99328.28;5056241;28;20025;-79
2023/01/16 02:45:50;;;;;;;0.10;0.10;;;;;;;5.19;74.78;99294.63;5073680;28;20401;-79
2023/01/16 02:48:39;;;;;;;0.20;0.20;;;;;;;5.26;74.72;99289.25;5070875;28;20510;-79
2023/01/16 02:53:51;;;;;;;0.10;0.10;;;;;;;5.26;74.75;99273.50;5067073;28;20444;-78
2023/01/16 02:56:28;;;;;;;0.20;0.20;;;;;;;5.27;74.63;99260.34;5049932;28;20036;-78
2023/01/16 02:58:54;;;;;;;0.15;0.15;;;;;;;5.25;74.47;99256.03;5049317;28;20041;-78
2023/01/16 03:01:20;;;;;;;0.57;0.57;;;;;;;5.24;74.45;99243.78;5051517;28;20086;-79
2023/01/16 03:06:50;;;;;;;0.20;0.20;;;;;;;5.27;74.41;99233.19;5113619;27;1312117;-79
2023/01/16 03:09:43;;;;;;;0.20;0.20;;;;;;;5.25;74.36;99232.41;5150829;27;20070;-79
2023/01/16 03:12:34;;;;;;;0.17;0.17;;;;;;;5.27;74.24;99227.94;5138029;27;20493;-79
2023/01/16 03:15:21;;;;;;;0.10;0.10;;;;;;;5.25;74.21;99220.13;5133120;27;20110;-79
2023/01/16 03:23:55;;;;;;;0.10;0.10;;;;;;;5.24;74.38;99209.66;5084026;28;20379;-79
2023/01/16 03:31:50;;;;;;;0.10;0.10;;;;;;;5.27;74.40;99186.81;5082172;27;1869623;-79
2023/01/16 03:37:06;;;;;;;0.20;0.20;;;;;;;5.28;74.23;99167.53;5071287;28;20390;-79
2023/01/16 03:39:41;;;;;;;0.10;0.10;;;;;;;5.26;74.43;99169.34;5050782;28;20056;-79
2023/01/16 03:42:14;;;;;;;1.38;0.73;;;;;;;5.28;74.26;99164.91;5055857;28;20025;-79
2023/01/16 03:44:49;;;;;;;0.10;0.10;;;;;;;5.28;74.37;99156.16;5055557;28;20108;-79
2023/01/16 03:47:23;;;;;;;0.10;0.10;;;;;;;5.30;74.38;99143.84;5051080;28;20082;-79
2023/01/16 03:49:56;;;;;;;0.10;0.10;;;;;;;5.35;74.33;99132.31;5050782;28;20175;-79
2023/01/16 03:52:30;;;;;;;0.10;0.10;;;;;;;5.36;74.18;99117.44;5050435;28;20040;-79
2023/01/16 03:57:51;;;;;;;0.10;0.10;;;;;;;5.37;74.14;99103.41;5090634;28;20328;-79
2023/01/16 04:00:18;;;;;;;0.28;0.28;;;;;;;5.38;74.03;99096.38;5088837;28;20067;-78
2023/01/16 04:02:59;;;;;;;74.82;2.38;;;;;;;5.39;74.05;99085.81;5083802;28;20043;-79
2023/01/16 04:08:09;;;;;;;0.10;0.10;;;;;;;5.40;73.49;99070.94;5080795;28;20902;-78
2023/01/16 04:10:39;;;;;;;0.20;0.20;;;;;;;5.39;73.70;99062.19;5078147;28;20552;-78
2023/01/16 04:13:09;;;;;;;0.10;0.10;;;;;;;5.38;73.73;99049.94;5079361;28;20049;-78
2023/01/16 04:15:39;;;;;;;0.10;0.10;;;;;;;5.35;73.53;99039.53;5068912;28;20056;-79
2023/01/16 04:18:06;;;;;;;0.10;0.10;;;;;;;5.30;73.65;99029.16;5058199;28;20033;-79
2023/01/16 04:20:34;;;;;;;0.20;0.20;;;;;;;5.30;73.81;99023.06;5060871;28;20063;-79
2023/01/16 04:23:00;;;;;;;0.10;0.10;;;;;;;5.27;73.52;99015.25;5053227;28;20025;-79
2023/01/16 04:25:26;;;;;;;0.10;0.10;;;;;;;5.23;73.56;99011.84;5059470;28;20034;-79
2023/01/16 04:27:52;;;;;;;0.10;0.10;;;;;;;5.25;73.54;99003.94;5053135;28;20058;-79
2023/01/16 04:30:18;;;;;;;0.10;0.10;;;;;;;5.20;73.92;98996.19;5058385;28;20029;-79
2023/01/16 04:32:44;;;;;;;0.10;0.10;;;;;;;5.21;73.80;98981.28;5059630;28;20033;-79
2023/01/16 04:35:11;;;;;;;0.10;0.10;;;;;;;5.21;73.61;98979.53;5059711;28;20029;-79
2023/01/16 04:37:37;;;;;;;0.10;0.10;;;;;;;5.19;73.60;98971.69;5055218;28;20029;-77
2023/01/16 04:40:05;;;;;;;0.10;0.10;;;;;;;5.17;73.69;98965.63;5066750;28;20025;-77
2023/01/16 04:42:31;;;;;;;0.20;0.20;;;;;;;5.17;73.86;98957.75;5067416;28;20026;-79
2023/01/16 04:44:57;;;;;;;0.10;0.10;;;;;;;5.16;73.96;98948.16;5058424;28;20064;-79
2023/01/16 04:47:23;;;;;;;0.10;0.10;;;;;;;5.18;73.96;98945.47;5055174;28;20485;-79
2023/01/16 04:49:49;;;;;;;0.08;0.08;;;;;;;5.20;73.80;98935.81;5055872;28;20501;-79
2023/01/16 04:52:15;;;;;;;0.10;0.10;;;;;;;5.22;73.92;98926.13;5059539;28;20025;-79
2023/01/16 04:54:41;;;;;;;0.10;0.10;;;;;;;5.26;73.74;98914.63;5063688;28;20134;-79
2023/01/16 04:57:07;;;;;;;0.10;0.10;;;;;;;5.27;73.76;98911.09;5067344;28;20028;-79
2023/01/16 04:59:34;;;;;;;0.10;0.10;;;;;;;5.26;73.86;98896.25;5060701;28;20214;-76
2023/01/16 05:02:00;;;;;;;0.10;0.10;;;;;;;5.26;73.86;98885.75;5066766;28;20048;-77
2023/01/16 05:04:26;;;;;;;0.10;0.10;;;;;;;5.26;73.56;98879.59;5076428;28;20032;-77
2023/01/16 05:06:52;;;;;;;0.10;0.10;;;;;;;5.21;73.67;98861.38;5077570;28;20063;-78
2023/01/16 05:09:18;;;;;;;0.10;0.10;;;;;;;5.25;73.73;98863.00;5072934;28;20549;-78
2023/01/16 05:11:44;;;;;;;0.10;0.10;;;;;;;5.24;73.66;98849.94;5069807;28;20052;-78
2023/01/16 05:14:10;;;;;;;0.10;0.10;;;;;;;5.26;73.83;98840.22;5072971;28;20028;-78
2023/01/16 05:16:38;;;;;;;0.10;0.10;;;;;;;5.27;73.72;98829.69;5071956;28;20338;-78
2023/01/16 05:19:05;;;;;;;0.10;0.10;;;;;;;5.26;74.11;98822.72;5054179;28;20037;-80
2023/01/16 05:21:31;;;;;;;0.10;0.10;;;;;;;5.28;74.16;98813.03;5058767;28;20029;-79
2023/01/16 05:23:57;;;;;;;0.10;0.10;;;;;;;5.32;74.04;98798.03;5047581;28;20393;-79
2023/01/16 05:26:23;;;;;;;0.10;0.10;;;;;;;5.34;74.08;98780.47;5067139;28;20560;-78
2023/01/16 05:28:49;;;;;;;2.65;2.50;;;;;;;5.39;74.10;98780.31;5049082;28;20041;-79
2023/01/16 05:31:15;;;;;;;0.10;0.10;;;;;;;5.35;74.28;98769.91;5050619;28;20034;-81
2023/01/16 05:33:41;;;;;;;0.10;0.10;;;;;;;5.40;74.19;98764.50;5045650;28;20048;-79
2023/01/16 05:36:08;;;;;;;0.10;0.10;;;;;;;5.39;74.35;98761.94;5053182;28;20064;-79
2023/01/16 05:38:34;;;;;;;0.10;0.10;;;;;;;5.44;74.24;98742.47;5057115;28;20032;-80
2023/01/16 05:41:00;;;;;;;0.10;0.10;;;;;;;5.44;74.32;98737.22;5058748;28;20028;-79
2023/01/16 05:43:26;;;;;;;0.20;0.20;;;;;;;5.53;74.28;98735.22;5044963;28;20024;-80
2023/01/16 05:45:52;;;;;;;0.10;0.10;;;;;;;5.56;74.32;98729.84;5055769;28;20040;-79
2023/01/16 05:48:18;;;;;;;0.10;0.10;;;;;;;5.53;74.44;98724.72;5071858;28;20048;-79
2023/01/16 05:50:44;;;;;;;0.10;0.10;;;;;;;5.62;74.27;98713.88;5075857;28;20024;-78
2023/01/16 05:53:11;;;;;;;0.17;0.17;;;;;;;5.63;74.35;98707.72;5073920;28;20079;-78
2023/01/16 05:55:42;;;;;;;0.10;0.10;;;;;;;5.67;74.39;98701.47;5068465;28;20033;-78
2023/01/16 05:58:10;;;;;;;0.10;0.10;;;;;;;5.69;74.49;98693.53;5064448;28;20552;-78
2023/01/16 06:00:36;;;;;;;0.10;0.10;;;;;;;5.75;74.49;98688.91;5082456;28;20056;-78
2023/01/16 06:03:03;;;;;;;0.10;0.10;;;;;;;5.76;74.73;98685.38;5066965;28;20013;-79
2023/01/16 06:05:29;;;;;;;0.15;0.15;;;;;;;5.78;74.58;98678.31;5060788;28;20029;-78
2023/01/16 06:07:56;;;;;;;0.10;0.10;;;;;;;5.80;74.72;98673.00;5049196;28;20144;-81
2023/01/16 06:10:23;;;;;;;0.20;0.20;;;;;;;5.81;74.41;98667.66;5040582;28;20397;-81
2023/01/16 06:12:49;;;;;;;0.15;0.15;;;;;;;5.85;74.24;98657.91;5039851;28;20021;-81
2023/01/16 06:15:15;;;;;;;0.20;0.20;;;;;;;5.92;74.43;98658.53;5038761;28;20024;-81
2023/01/16 06:17:41;;;;;;;0.10;0.10;;;;;;;5.92;74.10;98650.66;5037289;28;20037;-81
2023/01/16 06:20:08;;;;;;;0.10;0.10;;;;;;;5.93;74.57;98655.00;5039607;28;20099;-82
2023/01/16 06:22:34;;;;;;;1.55;0.90;;;;;;;5.94;74.38;98647.06;5036192;28;20026;-81
2023/01/16 06:25:00;;;;;;;0.20;0.20;;;;;;;5.98;74.23;98642.53;5041478;28;20657;-81
2023/01/16 06:27:26;;;;;;;1.83;1.25;;;;;;;5.95;74.28;98632.16;5038779;28;20058;-82
2023/01/16 06:29:52;;;;;;;0.15;0.15;;;;;;;5.99;74.80;98623.25;5039871;28;20120;-82
2023/01/16 06:32:19;;;;;;;0.10;0.10;;;;;;;5.99;74.53;98620.63;5039302;28;20041;-82
2023/01/16 06:34:45;;;;;;;0.10;0.10;;;;;;;5.99;74.31;98607.50;5039995;28;20033;-81
2023/01/16 06:37:11;;;;;;;0.10;0.10;;;;;;;5.97;74.98;98596.16;5038313;28;20075;-81
2023/01/16 06:39:38;;;;;;;0.10;0.10;;;;;;;5.98;75.13;98601.38;5049814;28;20025;-81
2023/01/16 06:42:04;;;;;;;0.10;0.10;;;;;;;6.06;74.85;98587.94;5043873;28;20108;-81
2023/01/16 06:44:32;;;;;;;0.20;0.20;;;;;;;6.05;74.75;98580.97;5039476;28;20033;-81
2023/01/16 06:47:00;;;;;;;0.05;0.05;;;;;;;6.05;74.93;98573.09;5039895;28;20034;-81
2023/01/16 06:49:26;;;;;;;0.10;0.10;;;;;;;6.04;74.99;98574.00;5044335;28;20031;-81
2023/01/16 06:51:52;;;;;;;0.10;0.10;;;;;;;6.03;75.01;98564.44;5036325;28;20033;-81
2023/01/16 06:54:19;;;;;;;0.20;0.20;;;;;;;6.01;75.32;98560.09;5046063;28;20025;-80
2023/01/16 06:56:45;;;;;;;0.10;0.10;;;;;;;5.99;74.93;98547.91;5046571;28;20108;-81
2023/01/16 06:59:11;;;;;;;0.10;0.10;;;;;;;6.00;75.29;98538.25;5046328;28;20036;-81
2023/01/16 07:01:37;;;;;;;0.10;0.10;;;;;;;6.02;75.47;98528.53;5038716;28;20040;-82
2023/01/16 07:04:03;;;;;;;0.10;0.10;;;;;;;6.03;75.13;98519.75;5047889;28;20033;-82
2023/01/16 07:06:29;;;;;;;0.10;0.10;;;;;;;5.97;75.52;98509.44;5047184;28;20037;-82
2023/01/16 07:08:55;;;;;;;0.10;0.10;;;;;;;6.04;74.99;98497.75;5044085;28;20033;-82
2023/01/16 07:11:21;;;;;;;0.10;0.10;;;;;;;6.00;75.39;98490.91;5062359;28;20041;-81
2023/01/16 07:13:47;;;;;;;0.20;0.20;;;;;;;5.99;75.38;98486.56;5046609;28;20100;-82
2023/01/16 07:24:38;;;;;;;0.17;0.17;;;;;;;6.13;75.23;98434.31;5040426;28;20045;-80
2023/01/16 07:27:08;;;;;;;0.10;0.10;;;;;;;6.08;75.24;98423.13;5041999;28;20033;-82
2023/01/16 07:29:36;;;;;;;0.10;0.10;;;;;;;6.09;75.06;98419.59;5041054;28;20143;-82
2023/01/16 07:32:03;;;;;;;0.30;0.30;;;;;;;6.12;75.43;98408.94;5034601;28;20582;-81
2023/01/16 07:34:29;;;;;;;0.10;0.10;;;;;;;6.11;75.23;98391.44;5047326;28;20065;-81
2023/01/16 07:36:55;;;;;;;0.20;0.20;;;;;;;6.14;75.43;98391.34;5050527;28;20053;-82
2023/01/16 07:39:21;;;;;;;0.10;0.10;;;;;;;6.13;75.07;98379.09;5056540;28;20233;-82
2023/01/16 07:41:50;;;;;;;0.10;0.10;;;;;;;6.11;75.22;98375.69;5049055;28;20032;-81
2023/01/16 07:44:16;;;;;;;0.20;0.20;;;;;;;6.11;75.29;98374.84;5043223;28;20014;-81
2023/01/16 07:46:42;;;;;;;0.10;0.10;;;;;;;6.17;74.66;98368.44;5033711;28;20032;-82
2023/01/16 07:49:08;;;;;;;0.10;0.10;;;;;;;6.17;74.79;98360.56;5036771;28;20401;-81
2023/01/16 07:51:34;;;;;;;0.10;0.10;;;;;;;6.17;75.24;98353.53;5040338;28;20517;-81
2023/01/16 07:54:00;;;;;;;0.10;0.10;;;;;;;6.12;75.17;98356.34;5038869;28;20072;-82
2023/01/16 07:56:26;;;;;;;0.10;0.10;;;;;;;6.15;74.95;98337.81;5045999;28;20080;-81
2023/01/16 07:58:54;;;;;;;0.10;0.10;;;;;;;6.15;74.78;98334.34;5036390;28;20032;-82
2023/01/16 08:01:20;;;;;;;0.10;0.10;;;;;;;6.14;75.06;98328.25;5044021;28;20112;-81
2023/01/16 08:03:46;;;;;;;0.10;0.10;;;;;;;6.10;74.89;98324.00;5038476;28;20036;-82
2023/01/16 08:06:12;;;;;;;0.10;0.10;;;;;;;6.10;75.12;98310.88;5036137;28;20039;-81
2023/01/16 08:08:38;;;;;;;0.10;0.10;;;;;;;6.12;74.94;98309.03;5034354;28;20021;-80
2023/01/16 08:11:35;;;;;;;0.10;0.10;;;;;;;6.11;74.92;98302.06;5038046;28;20404;-82
2023/01/16 08:13:50;;;;;;;0.10;0.10;;;;;;;6.11;75.08;98298.59;5036398;28;20033;-81
2023/01/16 08:16:16;;;;;;;0.10;0.10;;;;;;;6.06;75.34;98292.69;5033947;28;20065;-81
2023/01/16 08:18:42;;;;;;;0.10;0.10;;;;;;;6.07;74.99;98286.47;5034507;28;20052;-81
2023/01/16 08:21:08;;;;;;;0.10;0.10;;;;;;;6.08;75.09;98286.44;5032578;28;20028;-82
2023/01/16 08:23:34;;;;;;;0.10;0.10;;;;;;;6.09;75.13;98267.13;5033234;28;20030;-81
2023/01/16 08:26:01;;;;;;;0.10;0.10;;;;;;;6.11;74.96;98270.53;5035611;28;20030;-82
2023/01/16 08:28:27;;;;;;;0.20;0.20;;;;;;;6.12;75.12;98256.47;5033533;28;20049;-81
2023/01/16 08:30:57;;;;;;;0.10;0.10;;;;;;;6.13;75.13;98250.28;5030800;28;20037;-80
2023/01/16 08:33:23;;;;;;;0.10;0.10;;;;;;;6.15;75.29;98245.78;5033845;28;20034;-81
2023/01/16 08:35:49;;;;;;;0.10;0.10;;;;;;;6.15;75.32;98256.31;5035213;28;20392;-81
2023/01/16 08:38:15;;;;;;;0.10;0.10;;;;;;;6.14;75.11;98245.88;5037683;28;20037;-81
2023/01/16 08:40:41;;;;;;;0.17;0.17;;;;;;;6.14;75.27;98238.84;5036818;28;20043;-82
2023/01/16 08:51:27;;;;;;;0.10;0.10;;;;;;;6.18;75.44;98225.56;5032674;28;20037;-79
2023/01/16 08:53:55;;;;;;;0.10;0.10;;;;;;;6.17;75.34;98226.47;5033027;28;20505;-79
2023/01/16 08:56:22;;;;;;;0.10;0.10;;;;;;;6.23;75.40;98215.69;5037082;28;20017;-80
2023/01/16 08:58:48;;;;;;;0.30;0.30;;;;;;;6.21;75.24;98209.66;5039294;28;20052;-80
2023/01/16 09:01:15;;;;;;;0.10;0.10;;;;;;;6.23;75.21;98205.16;5037772;28;20509;-80
2023/01/16 09:03:41;;;;;;;0.10;0.10;;;;;;;6.22;75.48;98195.56;5038018;28;20060;-81
2023/01/16 09:06:08;;;;;;;3.03;2.72;;;;;;;6.25;75.49;98182.31;5036625;28;20044;-81
2023/01/16 09:08:34;;;;;;;0.10;0.10;;;;;;;6.21;75.15;98181.59;5035521;28;20682;-82
2023/01/16 09:13:48;;;;;;;0.10;0.10;;;;;;;6.26;75.12;98170.88;5037018;28;20060;-81
2023/01/16 09:16:19;;;;;;;0.10;0.10;;;;;;;6.26;75.04;98173.50;5036293;28;20088;-80
2023/01/16 09:18:45;;;;;;;0.10;0.10;;;;;;;6.27;75.43;98173.41;5040643;28;20167;-81
2023/01/16 09:21:11;;;;;;;0.10;0.10;;;;;;;6.26;75.16;98171.72;5035926;28;20039;-81
2023/01/16 09:23:37;;;;;;;0.10;0.10;;;;;;;6.27;75.40;98154.16;5042621;28;20338;-81
2023/01/16 09:26:03;;;;;;;0.10;0.10;;;;;;;6.27;75.20;98156.81;5048966;28;20567;-81
2023/01/16 09:28:29;;;;;;;0.10;0.10;;;;;;;6.30;75.04;98149.59;5036455;28;20052;-80
2023/01/16 09:30:55;;;;;;;0.20;0.20;;;;;;;6.32;75.33;98154.81;5043121;28;20034;-80
2023/01/16 09:33:21;;;;;;;0.10;0.10;;;;;;;6.31;74.97;98142.56;5045316;28;20072;-81
2023/01/16 09:35:48;;;;;;;0.10;0.10;;;;;;;6.29;75.20;98149.66;5047310;28;20668;-80
2023/01/16 09:38:14;;;;;;;0.10;0.10;;;;;;;6.36;75.35;98137.94;5036464;28;20044;-80
2023/01/16 09:40:49;;;;;;;0.10;0.10;;;;;;;6.37;75.24;98137.03;5035982;28;20037;-80
2023/01/16 09:45:58;;;;;;;0.10;0.10;;;;;;;6.45;75.28;98127.00;5106493;27;1178704;-80
2023/01/16 09:48:29;;;;;;;0.10;0.10;;;;;;;6.51;75.49;98120.59;5143322;27;20289;-79
2023/01/16 09:51:01;;;;;;;0.20;0.20;;;;;;;6.54;74.88;98124.88;5146779;27;20047;-81
2023/01/16 10:02:03;;;;;;;0.10;0.10;;;;;;;6.57;75.29;98116.84;5055959;28;20414;-81
2023/01/16 10:04:30;;;;;;;0.10;0.10;;;;;;;6.54;75.29;98106.44;5034666;28;20519;-81
2023/01/16 10:10:25;;;;;;;0.10;0.10;;;;;;;6.63;75.27;98098.97;5132018;27;20411;-81
2023/01/16 10:13:17;;;;;;;0.10;0.10;;;;;;;6.64;74.97;98099.81;5119050;27;20502;-79
2023/01/16 10:16:12;;;;;;;0.20;0.20;;;;;;;6.67;75.18;98099.69;5111595;28;20040;-82
2023/01/16 10:19:09;;;;;;;0.15;0.15;;;;;;;6.69;74.73;98100.47;5110316;27;20034;-81
2023/01/16 10:24:49;;;;;;;0.10;0.10;;;;;;;6.67;74.86;98094.41;5070568;28;20397;-80
2023/01/16 10:27:27;;;;;;;0.10;0.10;;;;;;;6.67;74.95;98083.91;5051491;28;20048;-80
2023/01/16 10:32:57;;;;;;;0.40;0.40;;;;;;;6.54;75.74;98074.88;5106265;27;1171661;-78
2023/01/16 10:35:33;;;;;;;0.52;0.52;;;;;;;6.70;75.10;98070.56;5118890;28;20035;-79
2023/01/16 10:38:33;;;;;;;0.10;0.10;;;;;;;6.80;74.85;98058.69;5119652;28;20111;-81
2023/01/16 10:40:59;;;;;;;0.10;0.10;;;;;;;6.77;74.58;98050.94;5124222;28;20058;-82
2023/01/16 10:49:30;;;;;;;0.10;0.10;;;;;;;6.89;74.83;98040.72;5125485;28;20058;-81
2023/01/16 10:52:00;;;;;;;0.00;0.00;;;;;;;6.88;74.67;98039.00;5127369;28;20486;-82
2023/01/16 10:54:26;;;;;;;0.10;0.10;;;;;;;6.88;74.73;98034.63;5126298;27;20571;-82
2023/01/16 10:56:52;;;;;;;0.10;0.10;;;;;;;6.92;74.46;98035.31;5128691;27;20031;-82
2023/01/16 10:59:20;;;;;;;0.10;0.10;;;;;;;6.95;74.93;98025.50;5128557;28;20028;-81
2023/01/16 11:01:48;;;;;;;0.10;0.10;;;;;;;6.95;74.78;98024.63;5126993;27;20049;-81
2023/01/16 11:04:19;;;;;;;0.10;0.10;;;;;;;7.02;74.40;98018.13;5127753;27;20046;-81
2023/01/16 11:06:46;;;;;;;0.10;0.10;;;;;;;7.03;74.39;98022.47;5130841;28;20143;-82
2023/01/16 11:20:38;;;;;;;0.10;0.10;;;;;;;7.23;74.35;97978.47;5089250;28;20035;-80
2023/01/16 11:23:16;;;;;;;0.10;0.10;;;;;;;7.34;74.64;97976.13;5103517;28;20027;-80
2023/01/16 11:25:44;;;;;;;0.10;0.10;;;;;;;7.37;74.12;97968.03;5109195;27;20016;-80
2023/01/16 11:28:16;;;;;;;0.10;0.10;;;;;;;7.48;74.77;97969.22;5107090;27;20038;-79
2023/01/16 11:30:46;;;;;;;0.10;0.10;;;;;;;7.55;74.23;97967.97;5096750;28;20024;-79
2023/01/16 11:33:24;;;;;;;0.10;0.10;;;;;;;7.61;74.11;97965.00;5103796;28;20692;-79
2023/01/16 11:35:56;;;;;;;0.00;0.00;;;;;;;7.62;74.27;97964.09;5102083;28;20020;-79
2023/01/16 11:38:25;;;;;;;0.15;0.15;;;;;;;7.67;73.43;97955.94;5096885;28;20024;-79
2023/01/16 11:40:55;;;;;;;0.10;0.10;;;;;;;7.67;73.32;97958.56;5105921;28;20019;-79
2023/01/16 11:46:30;;;;;;;0.10;0.10;;;;;;;7.87;72.59;97949.56;5100406;28;20698;-79
2023/01/16 11:49:00;;;;;;;0.10;0.10;;;;;;;7.96;72.54;97943.75;5090912;28;20031;-80
2023/01/16 11:51:30;;;;;;;0.10;0.10;;;;;;;8.05;71.83;97938.00;5105328;28;20020;-80
2023/01/16 11:53:58;;;;;;;0.10;0.10;;;;;;;8.05;71.42;97940.63;5105444;27;20045;-80
2023/01/16 11:56:49;;;;;;;0.10;0.10;;;;;;;8.16;70.37;97939.16;5096598;27;20028;-80
2023/01/16 12:02:34;;;;;;;0.10;0.10;;;;;;;8.30;70.66;97920.78;5069948;27;20390;-80
2023/01/16 12:07:52;;;;;;;0.10;0.10;;;;;;;8.24;70.34;97918.50;5102824;27;20133;-80
2023/01/16 12:10:30;;;;;;;0.20;0.20;;;;;;;8.24;71.13;97913.22;5083507;28;20028;-80
2023/01/16 12:16:16;;;;;;;0.20;0.20;;;;;;;8.21;71.14;97908.97;5079940;28;20025;-80
2023/01/16 12:19:12;;;;;;;0.10;0.10;;;;;;;8.25;70.56;97907.00;5086127;28;20028;-80
2023/01/16 12:22:04;;;;;;;0.15;0.15;;;;;;;8.25;71.09;97893.81;5083501;28;20082;-80
2023/01/16 12:30:12;;;;;;;0.10;0.10;;;;;;;8.33;71.74;97873.09;5060177;28;20154;-80
2023/01/16 12:32:52;;;;;;;0.10;0.10;;;;;;;8.33;71.34;97873.09;5057934;28;20065;-80
2023/01/16 12:38:24;;;;;;;0.10;0.10;;;;;;;8.37;72.06;97869.38;5110249;27;20366;-79
2023/01/16 12:43:47;;;;;;;0.10;0.10;;;;;;;8.34;71.59;97864.25;5063509;28;20398;-78
2023/01/16 12:46:39;;;;;;;0.20;0.20;;;;;;;8.34;72.13;97863.41;5031910;28;20075;-80
2023/01/16 12:49:27;;;;;;;0.10;0.10;;;;;;;8.33;71.73;97861.72;5030583;28;20588;-80
2023/01/16 12:52:21;;;;;;;0.10;0.10;;;;;;;8.32;72.21;97858.19;5030699;28;20057;-79
2023/01/16 13:00:23;;;;;;;0.10;0.10;;;;;;;8.29;72.29;97839.94;5108778;27;1209888;-80
2023/01/16 13:05:42;;;;;;;0.10;0.10;;;;;;;8.28;72.65;97827.69;5084382;28;20770;-80
2023/01/16 13:08:31;;;;;;;0.10;0.10;;;;;;;8.37;72.05;97824.50;5071514;28;20511;-80
2023/01/16 13:14:01;;;;;;;0.03;0.03;;;;;;;8.31;72.42;97827.50;5052772;28;20122;-80
2023/01/16 13:16:33;;;;;;;0.10;0.10;;;;;;;8.30;72.26;97824.94;5052708;28;20033;-80
2023/01/16 13:19:06;;;;;;;0.20;0.20;;;;;;;8.28;72.32;97825.03;5052232;28;20029;-80
2023/01/16 13:21:38;;;;;;;0.20;0.20;;;;;;;8.26;71.67;97826.91;5060418;28;20488;-80
2023/01/16 13:24:14;;;;;;;0.15;0.15;;;;;;;8.24;72.38;97826.16;5053606;28;20108;-81
2023/01/16 13:26:52;;;;;;;0.10;0.10;;;;;;;8.18;71.71;97821.25;5056696;28;20017;-80
2023/01/16 13:29:29;;;;;;;0.10;0.10;;;;;;;8.21;71.61;97816.66;5055151;28;20032;-80
2023/01/16 13:32:04;;;;;;;0.10;0.10;;;;;;;8.19;71.72;97813.25;5059899;28;20071;-80
2023/01/16 13:34:34;;;;;;;0.10;0.10;;;;;;;8.21;72.38;97821.06;5055662;28;20036;-80
2023/01/16 13:40:05;;;;;;;0.10;0.10;;;;;;;8.28;72.25;97809.22;5102854;27;20357;-80
2023/01/16 13:42:33;;;;;;;0.10;0.10;;;;;;;8.26;72.62;97811.94;5099102;28;20042;-79
2023/01/16 13:47:56;;;;;;;;;;;;;;;8.43;72.32;97816.19;5085281;28;20496;-80
2023/01/16 13:50:35;;;;;;;0.10;0.10;;;;;;;8.36;72.63;97804.34;5084461;28;20330;-80
2023/01/16 13:53:04;;;;;;;0.10;0.10;;;;;;;8.33;72.24;97804.50;5088754;28;20035;-80
2023/01/16 13:55:35;;;;;;;0.10;0.10;;;;;;;8.33;72.22;97793.97;5086762;28;20698;-80
2023/01/16 13:58:20;;;;;;;0.10;0.10;;;;;;;8.38;72.51;97794.53;5087896;28;20032;-80
2023/01/16 14:00:56;;;;;;;0.20;0.20;;;;;;;8.34;71.80;97793.03;5089659;28;20031;-80
2023/01/16 14:03:25;;;;;;;0.10;0.10;;;;;;;8.34;71.90;97785.09;5091429;28;20025;-80
2023/01/16 14:06:14;;;;;;;0.10;0.10;;;;;;;8.36;71.94;97788.50;5089881;28;20020;-79
2023/01/16 14:17:01;;;;;;;0.10;0.10;;;;;;;8.50;72.36;97794.75;5071589;28;20394;-80
2023/01/16 14:19:41;;;;;;;0.37;0.37;;;;;;;8.55;72.12;97792.72;5069113;28;20045;-80
2023/01/16 14:24:58;;;;;;;0.10;0.10;;;;;;;8.56;72.06;97795.25;5111515;27;20823;-80
2023/01/16 14:27:32;;;;;;;0.10;0.10;;;;;;;8.61;71.92;97792.34;5111613;28;20031;-79
2023/01/16 14:30:01;;;;;;;0.10;0.10;;;;;;;8.56;72.11;97783.84;5090192;28;20032;-80